Terminal Aerodrome Forecast
Issued by NWS

Home | Current Version | Previous Version | Graphics & Text | Print | Product List | Glossary On
Versions: 1 2 3 4 5 6 7 8 9 10 11 12 13 14 15 16 17 18 19 20 21 22 23 24 25 26 27 28 29 30 31 32 33 34 35 36 37 38 39 40
000
FTUS43 KGRB 021331 AAA
TAFRHI
TAF AMD
KRHI 021331Z 0214/0312 33012G18KT 2SM BR BKN004 BKN025
      TEMPO 0214/0216 5SM -TSRA BR SCT003 BKN025CB
     FM021600 19004KT 4SM -SHRA BKN040
      TEMPO 0216/0220 5SM -SHRA BR BKN020
     FM022000 16003KT 5SM -SHRA BR BKN020
      TEMPO 0222/0302 4SM -TSRA BR BKN015CB
     FM030200 VRB03KT 3SM BR VCSH BKN015
      TEMPO 0308/0312 1SM BR BKN005=

USA.gov is the U.S. government's official web portal to all federal, state and local government web resources and services.